createdAt,value
2018-04-29T00:00:19.347Z,9.23
2018-04-29T00:02:45.470Z,10.70
2018-04-29T00:05:11.557Z,10.47
2018-04-29T00:07:37.649Z,10.77
2018-04-29T00:10:03.808Z,10.37
2018-04-29T00:12:29.873Z,10.00
2018-04-29T00:14:55.939Z,11.30
2018-04-29T00:17:22.149Z,10.00
2018-04-29T00:19:48.548Z,12.00
2018-04-29T00:22:14.634Z,11.77
2018-04-29T00:24:40.735Z,10.93
2018-04-29T00:27:06.826Z,10.50
2018-04-29T00:29:32.955Z,10.60
2018-04-29T00:31:59.079Z,10.40
2018-04-29T00:34:25.953Z,11.40
2018-04-29T00:36:52.179Z,10.80
2018-04-29T00:39:18.306Z,12.17
2018-04-29T00:41:45.144Z,11.97
2018-04-29T00:44:11.235Z,12.67
2018-04-29T00:46:37.370Z,12.17
2018-04-29T00:49:03.448Z,12.20
2018-04-29T00:51:41.939Z,12.17
2018-04-29T00:54:08.090Z,11.30
2018-04-29T00:56:34.188Z,11.20
2018-04-29T00:59:01.019Z,10.93
2018-04-29T01:01:27.077Z,12.33
2018-04-29T01:03:53.956Z,12.70
2018-04-29T01:06:20.081Z,11.87
2018-04-29T01:08:46.933Z,11.50
2018-04-29T01:11:13.064Z,11.80
2018-04-29T01:13:39.916Z,10.80
2018-04-29T01:16:05.955Z,11.43
2018-04-29T01:18:32.792Z,11.03
2018-04-29T01:20:58.888Z,11.20
2018-04-29T01:23:25.029Z,11.17
2018-04-29T01:25:51.222Z,10.30
2018-04-29T01:28:18.078Z,11.60
2018-04-29T01:30:44.221Z,10.70
2018-04-29T01:33:10.328Z,10.20
2018-04-29T01:35:36.432Z,10.97
2018-04-29T01:38:02.562Z,11.03
2018-04-29T01:40:28.601Z,10.77
2018-04-29T01:42:54.769Z,12.70
2018-04-29T01:45:21.011Z,10.47
2018-04-29T01:47:47.839Z,12.30
2018-04-29T01:50:13.929Z,11.20
2018-04-29T01:52:39.997Z,11.00
2018-04-29T01:55:06.080Z,10.70
2018-04-29T01:57:32.206Z,11.40
2018-04-29T01:59:58.317Z,11.30
2018-04-29T02:02:25.155Z,11.03
2018-04-29T02:04:51.817Z,10.87
2018-04-29T02:07:17.907Z,11.13
2018-04-29T02:09:44.028Z,10.93
2018-04-29T02:12:10.193Z,11.43
2018-04-29T02:14:36.263Z,12.10
2018-04-29T02:17:02.329Z,11.60
2018-04-29T02:19:28.358Z,10.83
2018-04-29T02:21:54.414Z,11.50
2018-04-29T02:24:20.647Z,11.30
2018-04-29T02:26:46.731Z,11.90
2018-04-29T02:29:12.909Z,12.40
2018-04-29T02:31:39.801Z,11.83
2018-04-29T02:34:05.904Z,12.13
2018-04-29T02:36:32.727Z,11.73
2018-04-29T02:38:59.828Z,11.70
2018-04-29T02:41:25.940Z,12.90
2018-04-29T02:43:52.062Z,12.67
2018-04-29T02:46:18.157Z,12.93
2018-04-29T02:48:44.274Z,11.60
2018-04-29T02:51:10.363Z,11.73
2018-04-29T02:53:36.477Z,13.47
2018-04-29T02:56:02.549Z,11.80
2018-04-29T02:58:28.619Z,12.97
2018-04-29T03:00:54.802Z,13.50
2018-04-29T03:03:20.945Z,12.73
2018-04-29T03:05:47.135Z,14.00
2018-04-29T03:08:14.039Z,13.03
2018-04-29T03:10:40.076Z,11.87
2018-04-29T03:13:06.153Z,13.23
2018-04-29T03:15:32.225Z,13.33
2018-04-29T03:17:58.306Z,13.73
2018-04-29T03:20:24.468Z,13.80
2018-04-29T03:22:50.744Z,14.23
2018-04-29T03:25:16.821Z,14.40
2018-04-29T03:27:42.932Z,14.80
2018-04-29T03:30:10.165Z,15.17
2018-04-29T03:32:36.731Z,14.97
2018-04-29T03:35:03.108Z,15.70
2018-04-29T03:37:29.239Z,14.30
2018-04-29T03:39:55.509Z,15.50
2018-04-29T03:42:21.705Z,13.57
2018-04-29T03:44:48.167Z,14.27
2018-04-29T03:47:14.259Z,14.20
2018-04-29T03:49:40.313Z,14.00
2018-04-29T03:52:06.460Z,14.20
2018-04-29T03:54:32.560Z,14.83
2018-04-29T03:57:11.167Z,14.83
2018-04-29T03:59:49.477Z,13.90
2018-04-29T04:02:27.741Z,15.63
2018-04-29T04:04:53.824Z,13.50
2018-04-29T04:07:19.940Z,15.00
2018-04-29T04:09:46.075Z,15.17
2018-04-29T04:12:12.162Z,15.90
2018-04-29T04:14:38.529Z,14.20
2018-04-29T04:17:04.654Z,15.60
2018-04-29T04:19:30.741Z,14.13
2018-04-29T04:21:57.824Z,15.57
2018-04-29T04:24:24.015Z,15.90
2018-04-29T04:26:50.181Z,15.73
2018-04-29T04:29:17.307Z,15.10
2018-04-29T04:31:43.389Z,14.67
2018-04-29T04:34:10.243Z,17.97
2018-04-29T04:36:36.310Z,15.90
2018-04-29T04:39:02.423Z,16.63
2018-04-29T04:41:29.268Z,15.83
2018-04-29T04:43:55.439Z,16.43
2018-04-29T04:46:23.891Z,17.33
2018-04-29T04:48:50.226Z,17.30
2018-04-29T04:51:16.290Z,16.47
2018-04-29T04:53:42.368Z,17.37
2018-04-29T04:56:08.523Z,17.00
2018-04-29T04:58:34.783Z,17.23
2018-04-29T05:01:00.897Z,16.80
2018-04-29T05:03:26.975Z,17.27
2018-04-29T05:05:53.201Z,15.90
2018-04-29T05:08:19.257Z,16.00
2018-04-29T05:10:45.389Z,16.80
2018-04-29T05:13:11.479Z,16.87
2018-04-29T05:15:37.575Z,16.90
2018-04-29T05:18:03.661Z,17.30
2018-04-29T05:20:29.849Z,16.37
2018-04-29T05:22:55.901Z,15.93
2018-04-29T05:25:22.000Z,16.43
2018-04-29T05:27:48.124Z,15.93
2018-04-29T05:30:14.173Z,17.20
2018-04-29T05:32:40.261Z,16.20
2018-04-29T05:35:06.358Z,15.67
2018-04-29T05:37:32.429Z,15.90
2018-04-29T05:39:58.684Z,15.27
2018-04-29T05:42:25.495Z,16.37
2018-04-29T05:44:51.598Z,15.33
2018-04-29T05:47:17.640Z,14.23
2018-04-29T05:49:43.971Z,15.10
2018-04-29T05:52:10.061Z,15.07
2018-04-29T05:54:36.140Z,14.70
2018-04-29T05:57:02.952Z,14.43
2018-04-29T05:59:29.777Z,15.93
2018-04-29T06:01:55.851Z,14.40
2018-04-29T06:04:22.021Z,14.10
2018-04-29T06:06:48.166Z,13.30
2018-04-29T06:09:14.158Z,11.70
2018-04-29T06:11:40.233Z,13.60
2018-04-29T06:14:06.363Z,12.50
2018-04-29T06:16:34.007Z,12.40
2018-04-29T06:19:00.118Z,13.80
2018-04-29T06:21:26.172Z,12.20
2018-04-29T06:23:52.291Z,12.33
2018-04-29T06:26:18.484Z,11.10
2018-04-29T06:28:44.756Z,11.73
2018-04-29T06:31:11.997Z,11.50
2018-04-29T06:33:38.066Z,11.10
2018-04-29T06:36:04.195Z,11.80
2018-04-29T06:38:30.269Z,11.27
2018-04-29T06:40:56.361Z,12.33
2018-04-29T06:43:22.512Z,11.97
2018-04-29T06:45:48.569Z,11.90
2018-04-29T06:48:14.669Z,12.50
2018-04-29T06:50:41.477Z,12.33
2018-04-29T06:53:07.532Z,13.57
2018-04-29T06:55:33.620Z,12.57
2018-04-29T06:58:00.403Z,12.47
2018-04-29T07:00:26.484Z,12.63
2018-04-29T07:02:52.786Z,12.30
2018-04-29T07:05:18.842Z,12.23
2018-04-29T07:07:44.910Z,12.30
2018-04-29T07:10:11.816Z,13.73
2018-04-29T07:12:37.912Z,12.00
2018-04-29T07:15:10.853Z,11.90
2018-04-29T07:17:36.981Z,10.80
2018-04-29T07:20:03.199Z,11.60
2018-04-29T07:22:29.226Z,11.00
2018-04-29T07:24:56.017Z,11.70
2018-04-29T07:27:22.106Z,10.57
2018-04-29T07:29:48.926Z,11.10
2018-04-29T07:32:15.077Z,11.17
2018-04-29T07:34:41.181Z,10.93
2018-04-29T07:37:07.258Z,11.00
2018-04-29T07:39:33.554Z,11.10
2018-04-29T07:41:59.612Z,10.80
2018-04-29T07:44:25.681Z,10.23
2018-04-29T07:46:51.802Z,11.83
2018-04-29T07:49:17.847Z,10.90
2018-04-29T07:51:44.084Z,11.70
2018-04-29T07:54:10.215Z,11.20
2018-04-29T07:56:36.318Z,10.70
2018-04-29T07:59:03.148Z,10.33
2018-04-29T08:01:29.992Z,11.00
2018-04-29T08:03:56.028Z,11.37
2018-04-29T08:06:22.121Z,11.63
2018-04-29T08:08:48.174Z,11.03
2018-04-29T08:11:14.370Z,11.20
2018-04-29T08:13:41.157Z,11.90
2018-04-29T08:16:07.236Z,12.30
2018-04-29T08:18:33.314Z,11.83
2018-04-29T08:20:59.374Z,11.67
2018-04-29T08:23:25.455Z,10.90
2018-04-29T08:25:52.286Z,11.43
2018-04-29T08:28:18.455Z,12.10
2018-04-29T08:30:45.343Z,10.60
2018-04-29T08:33:11.438Z,11.00
2018-04-29T08:35:37.514Z,10.30
2018-04-29T08:38:04.579Z,10.13
2018-04-29T08:40:30.648Z,10.73
2018-04-29T08:42:56.694Z,11.00
2018-04-29T08:45:22.834Z,10.30
2018-04-29T08:47:48.896Z,10.10
2018-04-29T08:50:15.046Z,10.83
2018-04-29T08:52:41.898Z,10.10
2018-04-29T08:55:07.974Z,10.37
2018-04-29T08:57:34.064Z,9.47
2018-04-29T09:00:00.141Z,9.93
2018-04-29T09:02:26.250Z,10.57
2018-04-29T09:04:52.325Z,9.73
2018-04-29T09:07:18.412Z,9.43
2018-04-29T09:09:44.666Z,9.10
2018-04-29T09:12:11.543Z,8.93
2018-04-29T09:14:37.647Z,8.40
2018-04-29T09:17:03.760Z,8.60
2018-04-29T09:19:29.865Z,9.30
2018-04-29T09:21:55.914Z,9.77
2018-04-29T09:24:22.034Z,9.00
2018-04-29T09:26:48.092Z,8.93
2018-04-29T09:29:14.174Z,10.10
2018-04-29T09:31:40.241Z,9.77
2018-04-29T09:34:06.341Z,10.53
2018-04-29T09:36:32.390Z,10.77
2018-04-29T09:38:58.483Z,11.17
2018-04-29T09:41:24.624Z,10.00
2018-04-29T09:43:50.714Z,9.83
2018-04-29T09:46:17.503Z,9.33
2018-04-29T09:48:43.679Z,8.93
2018-04-29T09:51:09.678Z,9.73
2018-04-29T09:53:35.757Z,8.87
2018-04-29T09:56:01.892Z,8.23
2018-04-29T09:58:27.978Z,6.80
2018-04-29T10:00:57.331Z,7.47
2018-04-29T10:03:24.162Z,6.30
2018-04-29T10:05:50.276Z,7.33
2018-04-29T10:08:17.166Z,5.20
2018-04-29T10:10:43.201Z,6.20
2018-04-29T10:13:09.351Z,7.23
2018-04-29T10:15:35.579Z,6.80
2018-04-29T10:18:01.664Z,7.30
2018-04-29T10:20:27.776Z,8.40
2018-04-29T10:22:53.969Z,7.63
2018-04-29T10:25:20.808Z,7.73
2018-04-29T10:27:46.940Z,6.90
2018-04-29T10:30:14.017Z,7.80
2018-04-29T10:32:40.239Z,6.53
2018-04-29T10:35:06.215Z,7.53
2018-04-29T10:37:33.049Z,7.60
2018-04-29T10:39:59.118Z,6.30
2018-04-29T10:42:25.260Z,7.33
2018-04-29T10:44:51.586Z,6.80
2018-04-29T10:47:18.415Z,7.50
2018-04-29T10:49:44.469Z,6.80
2018-04-29T10:52:10.563Z,7.03
2018-04-29T10:54:36.632Z,7.00
2018-04-29T10:57:02.761Z,6.83
2018-04-29T10:59:28.855Z,6.30
2018-04-29T11:01:56.941Z,7.23
2018-04-29T11:04:23.043Z,6.90
2018-04-29T11:06:49.099Z,6.70
2018-04-29T11:09:15.230Z,7.17
2018-04-29T11:11:42.127Z,6.40
2018-04-29T11:14:08.343Z,5.50
2018-04-29T11:16:34.410Z,6.50
2018-04-29T11:19:00.495Z,5.70
2018-04-29T11:21:26.560Z,6.33
2018-04-29T11:23:52.642Z,7.10
2018-04-29T11:26:18.746Z,6.90
2018-04-29T11:28:44.791Z,6.30
2018-04-29T11:31:10.869Z,5.77
2018-04-29T11:33:36.938Z,5.27
2018-04-29T11:36:03.713Z,5.70
2018-04-29T11:38:29.881Z,6.07
2018-04-29T11:40:56.679Z,7.20
2018-04-29T11:43:23.564Z,6.47
2018-04-29T11:45:49.635Z,7.77
2018-04-29T11:48:15.695Z,7.00
2018-04-29T11:50:41.836Z,5.90
2018-04-29T11:53:07.951Z,6.53
2018-04-29T11:55:34.015Z,5.20
2018-04-29T11:58:00.106Z,5.50
2018-04-29T12:00:26.157Z,6.23
2018-04-29T12:02:52.290Z,5.93
2018-04-29T12:05:18.339Z,5.73
2018-04-29T12:07:44.412Z,6.27
2018-04-29T12:10:11.221Z,7.77
2018-04-29T12:12:37.300Z,6.60
2018-04-29T12:15:04.122Z,6.73
2018-04-29T12:17:30.268Z,6.30
2018-04-29T12:19:57.053Z,5.43
2018-04-29T12:22:23.163Z,5.93
2018-04-29T12:24:49.198Z,6.97
2018-04-29T12:27:15.379Z,7.07
2018-04-29T12:29:42.366Z,5.93
2018-04-29T12:32:08.459Z,6.30
2018-04-29T12:34:35.264Z,6.23
2018-04-29T12:37:01.477Z,6.40
2018-04-29T12:39:27.648Z,5.83
2018-04-29T12:41:53.758Z,6.30
2018-04-29T12:44:19.968Z,5.60
2018-04-29T12:46:46.926Z,5.33
2018-04-29T12:49:13.012Z,6.00
2018-04-29T12:51:39.454Z,5.43
2018-04-29T12:54:05.494Z,5.40
2018-04-29T12:56:31.586Z,5.97
2018-04-29T12:58:57.658Z,5.80
2018-04-29T13:01:23.780Z,6.30
2018-04-29T13:03:50.403Z,5.67
2018-04-29T13:06:17.513Z,6.70
2018-04-29T13:08:43.575Z,5.50
2018-04-29T13:11:10.441Z,5.60
2018-04-29T13:13:36.516Z,5.40
2018-04-29T13:16:02.693Z,5.10
2018-04-29T13:18:28.777Z,6.67
2018-04-29T13:20:55.075Z,6.70
2018-04-29T13:23:21.359Z,6.90
2018-04-29T13:25:47.901Z,8.00
2018-04-29T13:28:14.032Z,6.80
2018-04-29T13:33:13.652Z,7.37
2018-04-29T13:35:39.909Z,8.17
2018-04-29T13:38:05.996Z,6.50
2018-04-29T13:40:32.091Z,6.13
2018-04-29T13:42:58.346Z,6.00
2018-04-29T13:45:24.420Z,6.00
2018-04-29T13:47:50.494Z,6.83
2018-04-29T13:50:16.823Z,6.63
2018-04-29T13:52:42.871Z,7.50
2018-04-29T13:55:09.042Z,7.00
2018-04-29T13:57:35.243Z,7.10
2018-04-29T14:00:01.389Z,7.00
2018-04-29T14:02:27.522Z,6.63
2018-04-29T14:04:53.781Z,11.60
2018-04-29T14:07:19.957Z,6.47
2018-04-29T14:09:46.070Z,7.50
2018-04-29T14:12:12.271Z,7.07
2018-04-29T14:14:38.452Z,8.67
2018-04-29T14:17:04.515Z,6.40
2018-04-29T14:19:30.605Z,8.13
2018-04-29T14:21:56.656Z,8.00
2018-04-29T14:24:22.841Z,6.47
2018-04-29T14:26:49.006Z,7.77
2018-04-29T14:29:15.139Z,8.07
2018-04-29T14:31:52.232Z,9.67
2018-04-29T14:34:19.058Z,8.30
2018-04-29T14:36:45.131Z,8.60
2018-04-29T14:39:11.389Z,8.50
2018-04-29T14:41:37.540Z,8.13
2018-04-29T14:44:03.905Z,7.87
2018-04-29T14:46:30.031Z,9.07
2018-04-29T14:48:56.175Z,8.10
2018-04-29T14:51:22.319Z,8.13
2018-04-29T14:53:48.433Z,11.63
2018-04-29T14:56:14.500Z,11.90
2018-04-29T14:58:40.673Z,10.70
2018-04-29T15:01:06.786Z,9.80
2018-04-29T15:03:32.941Z,10.60
2018-04-29T15:05:59.625Z,10.30
2018-04-29T15:08:25.908Z,9.73
2018-04-29T15:10:52.047Z,9.20
2018-04-29T15:13:18.131Z,9.17
2018-04-29T15:15:44.923Z,9.47
2018-04-29T15:18:23.301Z,8.73
2018-04-29T15:20:56.432Z,9.70
2018-04-29T15:23:23.335Z,9.77
2018-04-29T15:25:49.400Z,10.77
2018-04-29T15:28:15.499Z,11.20
2018-04-29T15:30:41.610Z,11.77
2018-04-29T15:33:07.726Z,11.00
2018-04-29T15:35:36.288Z,12.17
2018-04-29T15:38:02.563Z,12.60
2018-04-29T15:40:29.391Z,13.23
2018-04-29T15:42:55.467Z,11.40
2018-04-29T15:45:22.361Z,12.53
2018-04-29T15:47:48.442Z,12.80
2018-04-29T15:50:14.740Z,13.33
2018-04-29T15:52:40.916Z,13.10
2018-04-29T15:55:07.082Z,14.10
2018-04-29T15:57:33.077Z,13.73
2018-04-29T15:59:59.210Z,13.60
2018-04-29T16:02:25.330Z,12.87
2018-04-29T16:04:51.446Z,12.93
2018-04-29T16:07:17.532Z,13.83
2018-04-29T16:09:43.596Z,15.33
2018-04-29T16:12:09.648Z,14.53
2018-04-29T16:14:36.502Z,14.70
2018-04-29T16:17:03.344Z,14.50
2018-04-29T16:19:29.417Z,14.37
2018-04-29T16:21:55.546Z,13.97
2018-04-29T16:24:21.697Z,14.30
2018-04-29T16:26:47.762Z,14.63
2018-04-29T16:29:14.097Z,15.63
2018-04-29T16:31:40.210Z,13.90
2018-04-29T16:34:07.156Z,13.57
2018-04-29T16:36:33.289Z,13.53
2018-04-29T16:38:59.372Z,14.03
2018-04-29T16:41:25.454Z,13.60
2018-04-29T16:43:52.343Z,13.77
2018-04-29T16:46:18.499Z,12.63
2018-04-29T16:48:44.600Z,13.40
2018-04-29T16:51:11.429Z,12.57
2018-04-29T16:53:37.539Z,12.93
2018-04-29T16:56:03.637Z,13.33
2018-04-29T16:58:30.455Z,13.13
2018-04-29T17:00:56.539Z,13.30
2018-04-29T17:03:22.720Z,13.90
2018-04-29T17:05:48.786Z,13.70
2018-04-29T17:08:14.955Z,14.20
2018-04-29T17:10:41.101Z,14.47
2018-04-29T17:13:07.163Z,15.30
2018-04-29T17:15:33.346Z,16.17
2018-04-29T17:17:59.441Z,17.30
2018-04-29T17:20:25.562Z,16.57
2018-04-29T17:22:51.686Z,18.97
2018-04-29T17:25:17.860Z,19.43
2018-04-29T17:27:44.086Z,19.30
2018-04-29T17:30:10.209Z,19.17
2018-04-29T17:32:36.238Z,20.27
2018-04-29T17:35:02.362Z,20.37
2018-04-29T17:37:28.442Z,21.50
2018-04-29T17:39:54.510Z,20.93
2018-04-29T17:42:20.714Z,21.33
2018-04-29T17:44:46.838Z,22.30
2018-04-29T17:47:12.894Z,21.23
2018-04-29T17:49:38.950Z,22.33
2018-04-29T17:52:05.171Z,23.03
2018-04-29T17:54:31.249Z,21.70
2018-04-29T17:56:57.321Z,23.37
2018-04-29T17:59:24.229Z,28.60
2018-04-29T18:01:50.321Z,23.47
2018-04-29T18:04:16.370Z,23.00
2018-04-29T18:06:43.198Z,23.30
2018-04-29T18:09:10.036Z,23.50
2018-04-29T18:11:36.138Z,22.63
2018-04-29T18:14:02.256Z,23.47
2018-04-29T18:16:28.336Z,21.80
2018-04-29T18:18:54.474Z,24.30
2018-04-29T18:21:21.637Z,23.53
2018-04-29T18:23:47.721Z,22.33
2018-04-29T18:26:14.671Z,25.73
2018-04-29T18:28:40.733Z,24.90
2018-04-29T18:31:07.152Z,25.13
2018-04-29T18:33:33.339Z,24.60
2018-04-29T18:35:59.454Z,25.27
2018-04-29T18:38:25.577Z,23.83
2018-04-29T18:40:52.405Z,26.70
2018-04-29T18:43:18.687Z,25.00
2018-04-29T18:45:44.780Z,24.53
2018-04-29T18:48:10.855Z,26.97
2018-04-29T18:50:37.782Z,24.23
2018-04-29T18:53:04.295Z,25.60
2018-04-29T18:55:30.326Z,25.53
2018-04-29T18:57:56.423Z,26.97
2018-04-29T19:00:22.568Z,28.17
2018-04-29T19:02:49.400Z,27.07
2018-04-29T19:05:15.733Z,26.73
2018-04-29T19:07:41.848Z,27.60
2018-04-29T19:10:07.950Z,27.10
2018-04-29T19:12:34.304Z,26.83
2018-04-29T19:15:00.368Z,28.20
2018-04-29T19:17:26.463Z,27.20
2018-04-29T19:19:52.825Z,25.83
2018-04-29T19:22:18.881Z,25.10
2018-04-29T19:24:44.934Z,25.23
2018-04-29T19:27:11.356Z,25.80
2018-04-29T19:29:37.453Z,25.20
2018-04-29T19:32:03.569Z,25.87
2018-04-29T19:34:29.690Z,25.70
2018-04-29T19:36:55.870Z,26.33
2018-04-29T19:39:21.967Z,26.40
2018-04-29T19:41:48.125Z,25.83
2018-04-29T19:44:14.202Z,26.10
2018-04-29T19:46:42.311Z,25.90
2018-04-29T19:49:08.407Z,23.90
2018-04-29T19:51:34.458Z,25.00
2018-04-29T19:54:00.518Z,24.33
2018-04-29T19:56:27.522Z,24.10
2018-04-29T19:58:53.681Z,25.60
2018-04-29T20:01:19.790Z,23.70
2018-04-29T20:03:45.920Z,24.00
2018-04-29T20:06:12.304Z,23.07
2018-04-29T20:08:38.529Z,23.67
2018-04-29T20:11:05.093Z,23.70
2018-04-29T20:13:31.922Z,23.63
2018-04-29T20:15:58.019Z,25.83
2018-04-29T20:18:25.028Z,25.60
2018-04-29T20:20:52.261Z,25.03
2018-04-29T20:23:18.388Z,24.07
2018-04-29T20:25:45.948Z,25.43
2018-04-29T20:28:12.072Z,24.43
2018-04-29T20:30:38.196Z,23.00
2018-04-29T20:33:04.708Z,22.60
2018-04-29T20:35:30.774Z,25.20
2018-04-29T20:37:56.941Z,25.20
2018-04-29T20:40:23.558Z,22.40
2018-04-29T20:42:49.657Z,24.33
2018-04-29T20:45:15.751Z,25.77
2018-04-29T20:47:41.835Z,25.07
2018-04-29T20:50:08.694Z,23.80
2018-04-29T20:52:35.226Z,25.27
2018-04-29T20:55:01.357Z,24.23
2018-04-29T20:57:27.718Z,24.67
2018-04-29T20:59:54.187Z,23.87
2018-04-29T21:02:20.243Z,25.13
2018-04-29T21:04:46.392Z,24.90
2018-04-29T21:07:12.435Z,25.90
2018-04-29T21:09:39.270Z,25.10
2018-04-29T21:12:05.350Z,25.80
2018-04-29T21:14:31.396Z,24.27
2018-04-29T21:16:58.509Z,25.20
2018-04-29T21:19:24.640Z,24.93
2018-04-29T21:21:51.514Z,25.57
2018-04-29T21:24:17.898Z,25.30
2018-04-29T21:26:43.995Z,26.07
2018-04-29T21:29:10.163Z,25.50
2018-04-29T21:31:36.392Z,26.70
2018-04-29T21:34:02.470Z,23.73
2018-04-29T21:36:29.306Z,25.97
2018-04-29T21:38:55.397Z,24.57
2018-04-29T21:41:21.500Z,25.23
2018-04-29T21:43:48.356Z,25.47
2018-04-29T21:46:15.210Z,23.43
2018-04-29T21:48:41.294Z,25.83
2018-04-29T21:51:07.365Z,25.10
2018-04-29T21:53:33.629Z,23.53
2018-04-29T21:56:00.515Z,24.47
2018-04-29T21:58:26.723Z,23.80
2018-04-29T22:00:53.577Z,22.93
2018-04-29T22:03:20.388Z,24.50
2018-04-29T22:05:46.489Z,24.40
2018-04-29T22:08:12.561Z,24.27
2018-04-29T22:10:38.773Z,23.00
2018-04-29T22:13:04.814Z,23.73
2018-04-29T22:15:30.917Z,20.93
2018-04-29T22:17:57.004Z,21.90
2018-04-29T22:20:23.113Z,22.77
2018-04-29T22:22:49.246Z,21.43
2018-04-29T22:25:15.421Z,21.30
2018-04-29T22:27:41.600Z,21.07
2018-04-29T22:30:08.563Z,20.60
2018-04-29T22:32:35.450Z,21.50
2018-04-29T22:35:01.845Z,20.77
2018-04-29T22:37:27.890Z,20.47
2018-04-29T22:39:53.940Z,21.10
2018-04-29T22:42:20.106Z,20.33
2018-04-29T22:44:46.883Z,19.10
2018-04-29T22:47:12.908Z,19.40
2018-04-29T22:49:38.997Z,18.97
2018-04-29T22:52:05.066Z,20.60
2018-04-29T22:54:31.899Z,19.57
2018-04-29T22:56:58.170Z,19.17
2018-04-29T22:59:24.635Z,18.27
2018-04-29T23:01:50.813Z,16.57
2018-04-29T23:04:17.029Z,17.30
2018-04-29T23:06:43.120Z,18.90
2018-04-29T23:09:09.208Z,18.43
2018-04-29T23:11:35.325Z,17.10
2018-04-29T23:14:01.501Z,17.20
2018-04-29T23:16:27.602Z,16.57
2018-04-29T23:18:53.681Z,16.67
2018-04-29T23:21:19.758Z,16.63
2018-04-29T23:23:45.799Z,16.77
2018-04-29T23:26:11.834Z,15.00
2018-04-29T23:28:38.730Z,15.27
2018-04-29T23:31:04.794Z,13.30
2018-04-29T23:33:30.835Z,15.00
2018-04-29T23:35:56.928Z,14.60
2018-04-29T23:38:23.155Z,13.77
2018-04-29T23:40:49.251Z,14.17
2018-04-29T23:43:15.350Z,15.20
2018-04-29T23:45:41.408Z,13.77
2018-04-29T23:48:07.521Z,13.87
2018-04-29T23:50:33.836Z,13.40
2018-04-29T23:53:00.626Z,13.40
2018-04-29T23:55:26.684Z,14.10
2018-04-29T23:57:52.852Z,12.47
